Time;durP1;ratioP1;P1;durP2;ratioP2;P2;SDS_P1;SDS_P2;PMS_P1;PMS_P2;Temp;Humidity;BMP_temperature;BMP_pressure;BME280_temperature;BME280_humidity;BME280_pressure;Samples;Min_cycle;Max_cycle;Signal;HPM_P1;HPM_P2
2022/05/18 00:00:17;;;;;;;42.20;34.13;;;17.80;99.90;;;;;;5062211;28;20104;-60
2022/05/18 00:02:44;;;;;;;42.92;36.25;;;17.90;99.90;;;;;;5028828;28;20129;-60
2022/05/18 00:05:11;;;;;;;43.83;37.38;;;17.80;99.90;;;;;;5030040;28;20506;-60
2022/05/18 00:07:37;;;;;;;43.80;35.30;;;17.70;99.90;;;;;;5029755;28;20041;-59
2022/05/18 00:10:04;;;;;;;40.88;34.88;;;17.80;99.90;;;;;;5012229;28;20373;-60
2022/05/18 00:12:29;;;;;;;44.92;37.20;;;17.80;99.90;;;;;;5028421;28;20037;-60
2022/05/18 00:14:55;;;;;;;45.30;37.85;;;17.70;99.90;;;;;;5028575;28;20411;-60
2022/05/18 00:17:21;;;;;;;46.55;37.05;;;17.80;99.90;;;;;;5027870;28;20076;-60
2022/05/18 00:19:47;;;;;;;42.28;35.80;;;17.70;99.90;;;;;;5012101;28;20049;-61
2022/05/18 00:22:12;;;;;;;39.53;33.38;;;17.70;99.90;;;;;;5028558;28;20544;-60
2022/05/18 00:24:38;;;;;;;43.78;34.58;;;17.60;99.90;;;;;;5061424;28;20423;-60
2022/05/18 00:27:04;;;;;;;40.60;33.42;;;17.60;99.90;;;;;;5028554;28;20045;-60
2022/05/18 00:29:31;;;;;;;39.33;33.13;;;17.70;99.90;;;;;;5027994;28;20046;-60
2022/05/18 00:31:57;;;;;;;38.58;31.90;;;17.70;99.90;;;;;;5045053;28;20080;-60
2022/05/18 00:34:24;;;;;;;38.22;32.75;;;17.50;99.90;;;;;;5028571;28;20441;-60
2022/05/18 00:36:49;;;;;;;41.20;34.78;;;17.60;99.90;;;;;;5028402;28;20435;-60
2022/05/18 00:39:15;;;;;;;48.25;38.47;;;17.50;99.90;;;;;;5027780;28;20042;-59
2022/05/18 00:41:41;;;;;;;55.47;45.45;;;17.50;99.90;;;;;;5027994;28;20073;-60
2022/05/18 00:44:07;;;;;;;57.13;49.85;;;17.50;99.90;;;;;;5045133;28;20393;-60
2022/05/18 00:46:34;;;;;;;57.33;51.08;;;17.50;99.90;;;;;;5061656;28;20395;-60
2022/05/18 00:49:03;;;;;;;59.47;52.28;;;17.50;99.90;;;;;;5028003;28;20049;-60
2022/05/18 00:51:36;;;;;;;56.75;49.33;;;17.50;99.90;;;;;;5027947;28;20077;-60
2022/05/18 00:54:23;;;;;;;56.25;47.22;;;17.50;99.90;;;;;;5011455;28;20132;-60
2022/05/18 00:57:10;;;;;;;52.13;44.70;;;17.40;99.90;;;;;;5011423;28;20096;-60
2022/05/18 00:59:49;;;;;;;48.10;42.13;;;17.40;99.90;;;;;;5011270;28;20063;-60
2022/05/18 01:02:17;;;;;;;46.10;39.35;;;17.30;99.90;;;;;;5028013;28;20117;-61
2022/05/18 01:04:44;;;;;;;41.50;36.97;;;17.30;99.90;;;;;;5028329;28;20510;-60
2022/05/18 01:07:33;;;;;;;43.55;37.42;;;17.40;99.90;;;;;;5044534;28;20049;-60
2022/05/18 01:09:59;;;;;;;39.40;33.25;;;17.40;99.90;;;;;;5027151;28;20057;-60
2022/05/18 01:12:25;;;;;;;36.78;30.70;;;17.40;99.90;;;;;;5027370;28;20183;-60
2022/05/18 01:15:02;;;;;;;40.63;32.83;;;17.40;99.90;;;;;;4994773;28;20049;-60
2022/05/18 01:17:34;;;;;;;38.72;31.23;;;17.40;99.90;;;;;;5043894;28;20041;-60
2022/05/18 01:20:03;;;;;;;39.63;31.63;;;17.50;99.90;;;;;;5010909;28;20041;-60
2022/05/18 01:22:44;;;;;;;37.85;30.27;;;17.50;99.90;;;;;;5027656;28;20533;-60
2022/05/18 01:25:22;;;;;;;37.55;30.52;;;17.60;99.90;;;;;;5010961;28;20080;-60
2022/05/18 01:27:48;;;;;;;35.90;30.38;;;17.60;99.90;;;;;;5027484;28;20053;-60
2022/05/18 01:30:14;;;;;;;33.88;29.05;;;17.60;99.90;;;;;;5012536;28;20049;-60
2022/05/18 01:32:44;;;;;;;39.47;30.70;;;17.60;99.90;;;;;;5032967;28;20049;-60
2022/05/18 01:35:17;;;;;;;35.90;31.27;;;17.60;99.90;;;;;;5031543;28;20057;-60
2022/05/18 01:37:43;;;;;;;37.53;31.00;;;17.60;99.90;;;;;;5031684;28;20388;-60
2022/05/18 01:40:19;;;;;;;34.80;31.13;;;17.60;99.90;;;;;;5031507;28;20515;-60
2022/05/18 01:42:49;;;;;;;38.30;32.97;;;17.60;99.90;;;;;;5031383;28;20369;-60
2022/05/18 01:45:15;;;;;;;39.90;32.30;;;17.60;99.90;;;;;;5031509;28;20148;-60
2022/05/18 01:47:43;;;;;;;38.85;34.15;;;17.60;99.90;;;;;;5031262;28;20484;-60
2022/05/18 01:50:14;;;;;;;44.53;37.90;;;17.50;99.90;;;;;;5031027;28;20080;-60
2022/05/18 01:52:40;;;;;;;41.33;36.38;;;17.60;99.90;;;;;;5032580;28;20060;-60
2022/05/18 01:55:07;;;;;;;38.63;31.30;;;17.50;99.90;;;;;;5030883;28;20049;-60
2022/05/18 01:57:34;;;;;;;32.95;26.73;;;17.40;99.90;;;;;;5047404;28;20045;-61
2022/05/18 02:00:03;;;;;;;31.55;26.35;;;17.40;99.90;;;;;;5031005;28;20108;-60
2022/05/18 02:02:29;;;;;;;31.00;25.02;;;17.40;99.90;;;;;;5030887;28;20093;-60
2022/05/18 02:04:55;;;;;;;34.05;27.52;;;17.30;99.90;;;;;;5014639;28;20038;-60
2022/05/18 02:07:21;;;;;;;34.38;29.60;;;17.30;99.90;;;;;;5014312;28;20332;-59
2022/05/18 02:09:46;;;;;;;35.97;29.42;;;17.30;99.90;;;;;;5030827;28;20347;-59
2022/05/18 02:12:13;;;;;;;33.92;29.95;;;17.30;99.90;;;;;;5030250;28;20049;-59
2022/05/18 02:14:38;;;;;;;36.95;30.98;;;17.20;99.90;;;;;;5030574;28;20115;-59
2022/05/18 02:17:05;;;;;;;32.10;28.35;;;17.20;99.90;;;;;;5030571;28;20045;-60
2022/05/18 02:19:31;;;;;;;30.85;27.63;;;17.20;99.90;;;;;;5031751;28;20076;-60
2022/05/18 02:21:56;;;;;;;36.40;28.50;;;17.20;99.90;;;;;;5031779;28;20064;-60
2022/05/18 02:24:22;;;;;;;31.70;27.80;;;17.20;99.90;;;;;;5030718;28;20050;-59
2022/05/18 02:26:48;;;;;;;33.80;29.40;;;17.10;99.90;;;;;;5046916;28;20140;-60
2022/05/18 02:29:13;;;;;;;34.53;27.63;;;17.10;99.90;;;;;;5030418;28;20049;-59
2022/05/18 02:31:39;;;;;;;36.00;27.88;;;17.10;99.90;;;;;;5029951;28;20403;-59
2022/05/18 02:34:05;;;;;;;36.83;28.63;;;17.10;99.90;;;;;;5013742;28;20053;-59
2022/05/18 02:36:31;;;;;;;37.15;28.92;;;17.10;99.90;;;;;;5030408;28;20049;-59
2022/05/18 02:38:56;;;;;;;35.00;26.75;;;17.00;99.90;;;;;;5030533;28;20037;-59
2022/05/18 02:41:22;;;;;;;35.92;28.75;;;17.00;99.90;;;;;;5029830;28;20045;-60
2022/05/18 02:43:48;;;;;;;35.47;27.85;;;16.90;99.90;;;;;;5030740;28;20101;-60
2022/05/18 02:46:17;;;;;;;35.13;27.50;;;16.80;99.90;;;;;;5030292;28;20056;-60
2022/05/18 02:48:43;;;;;;;34.13;27.10;;;16.80;99.90;;;;;;5031382;28;20852;-60
2022/05/18 02:51:10;;;;;;;31.85;25.85;;;16.80;99.90;;;;;;5030231;28;20495;-60
2022/05/18 02:53:36;;;;;;;33.13;24.52;;;16.70;99.90;;;;;;5046326;28;20080;-60
2022/05/18 02:56:07;;;;;;;29.55;24.25;;;16.70;99.90;;;;;;5031288;28;20107;-60
2022/05/18 02:58:37;;;;;;;34.40;24.45;;;16.70;99.90;;;;;;5029624;28;20064;-60
2022/05/18 03:01:06;;;;;;;33.60;23.65;;;16.70;99.90;;;;;;5031217;28;20053;-60
2022/05/18 03:03:32;;;;;;;24.15;20.63;;;16.60;99.90;;;;;;5030956;28;20041;-59
2022/05/18 03:05:57;;;;;;;24.17;19.85;;;16.60;99.90;;;;;;5046448;28;20037;-60
2022/05/18 03:08:23;;;;;;;22.95;19.55;;;16.60;99.90;;;;;;5029730;28;20049;-60
2022/05/18 03:10:49;;;;;;;21.48;19.08;;;16.60;99.90;;;;;;5029375;28;20050;-60
2022/05/18 03:13:14;;;;;;;23.00;20.50;;;16.50;99.90;;;;;;5013005;28;20133;-60
2022/05/18 03:15:40;;;;;;;24.25;20.10;;;16.50;99.90;;;;;;5031255;28;20045;-61
2022/05/18 03:18:06;;;;;;;24.80;20.17;;;16.50;99.90;;;;;;5030794;28;20037;-59
2022/05/18 03:23:34;;;;;;;28.35;21.90;;;16.40;99.90;;;;;;5029742;28;20060;-60
2022/05/18 03:26:17;;;;;;;26.65;23.70;;;16.50;99.90;;;;;;5063066;28;20492;-60
2022/05/18 03:28:45;;;;;;;31.33;24.77;;;16.40;99.90;;;;;;5031054;28;20122;-60
2022/05/18 03:31:11;;;;;;;34.08;28.63;;;16.50;99.90;;;;;;5029502;28;20046;-60
2022/05/18 03:33:37;;;;;;;37.10;31.73;;;16.50;99.90;;;;;;5029223;28;20064;-60
2022/05/18 03:36:05;;;;;;;35.38;29.90;;;16.50;99.90;;;;;;5029234;28;20555;-60
2022/05/18 03:38:31;;;;;;;33.70;30.05;;;16.50;99.90;;;;;;5029504;28;20434;-60
2022/05/18 03:40:57;;;;;;;33.17;29.48;;;16.40;99.90;;;;;;5029329;28;20041;-60
2022/05/18 03:43:23;;;;;;;36.47;30.00;;;16.40;99.90;;;;;;5029023;28;20041;-60
2022/05/18 03:45:49;;;;;;;35.40;27.75;;;16.40;99.90;;;;;;5029496;28;20056;-60
2022/05/18 03:48:17;;;;;;;38.47;29.88;;;16.20;99.90;;;;;;5045825;28;20491;-60
2022/05/18 03:50:45;;;;;;;36.40;28.35;;;16.30;99.90;;;;;;5029344;28;20045;-60
2022/05/18 03:53:11;;;;;;;35.45;28.95;;;16.30;99.90;;;;;;5028454;28;20129;-59
2022/05/18 03:55:40;;;;;;;34.03;27.30;;;16.30;99.90;;;;;;5030242;28;20037;-60
2022/05/18 03:58:06;;;;;;;31.63;25.10;;;16.30;99.90;;;;;;5028665;28;20053;-59
2022/05/18 04:00:33;;;;;;;25.10;21.13;;;16.20;99.90;;;;;;5012276;28;20053;-59
2022/05/18 04:03:00;;;;;;;25.65;20.92;;;16.20;99.90;;;;;;5028820;28;20132;-59
2022/05/18 04:05:26;;;;;;;24.92;20.90;;;16.20;99.90;;;;;;5028980;28;20415;-60
2022/05/18 04:07:52;;;;;;;24.25;21.25;;;16.20;99.90;;;;;;5028789;28;20045;-60
2022/05/18 04:10:18;;;;;;;23.73;20.35;;;16.20;99.90;;;;;;5032442;28;20403;-60
2022/05/18 04:12:44;;;;;;;25.15;20.08;;;16.30;99.90;;;;;;5028501;28;20052;-60
2022/05/18 04:15:16;;;;;;;20.77;18.35;;;16.20;99.90;;;;;;5029957;28;20044;-60
2022/05/18 04:17:45;;;;;;;22.48;17.90;;;16.20;99.90;;;;;;5062223;28;20442;-60
2022/05/18 04:20:16;;;;;;;19.80;17.70;;;16.20;99.90;;;;;;5012459;28;20080;-60
2022/05/18 04:22:42;;;;;;;20.20;16.85;;;16.20;99.90;;;;;;5028586;28;20041;-59
2022/05/18 04:25:09;;;;;;;18.38;16.23;;;16.20;99.90;;;;;;5030029;28;20041;-59
2022/05/18 04:27:36;;;;;;;19.73;16.88;;;16.20;99.90;;;;;;5028133;28;20057;-59
2022/05/18 04:30:02;;;;;;;18.27;16.27;;;16.20;99.90;;;;;;5028486;28;20072;-59
2022/05/18 04:32:28;;;;;;;17.48;15.68;;;16.30;99.90;;;;;;5045021;28;20116;-59
2022/05/18 04:34:54;;;;;;;17.25;15.40;;;16.30;99.90;;;;;;5029788;28;20132;-59
2022/05/18 04:37:19;;;;;;;21.67;16.65;;;16.20;99.90;;;;;;5029284;28;20442;-59
2022/05/18 04:39:46;;;;;;;16.85;15.05;;;16.30;99.90;;;;;;5044798;28;20064;-60
2022/05/18 04:42:12;;;;;;;15.90;14.25;;;16.30;99.90;;;;;;5028034;28;20053;-60
2022/05/18 04:44:38;;;;;;;16.23;14.13;;;16.30;99.90;;;;;;5028458;28;20038;-60
2022/05/18 04:47:04;;;;;;;16.17;13.77;;;16.40;99.90;;;;;;5029360;28;20599;-60
2022/05/18 04:49:30;;;;;;;16.83;15.02;;;16.50;99.90;;;;;;5011719;28;20117;-59
2022/05/18 04:51:56;;;;;;;15.45;12.88;;;16.50;99.90;;;;;;5029648;28;20519;-60
2022/05/18 04:54:22;;;;;;;15.45;13.57;;;16.50;99.90;;;;;;5027979;28;20101;-59
2022/05/18 04:56:48;;;;;;;15.90;13.40;;;16.60;99.90;;;;;;5029280;28;20045;-59
2022/05/18 04:59:13;;;;;;;14.65;13.10;;;16.60;99.90;;;;;;5029090;28;20761;-60
2022/05/18 05:01:39;;;;;;;16.67;12.43;;;16.60;99.90;;;;;;5027625;28;20045;-60
2022/05/18 05:04:09;;;;;;;14.30;12.63;;;16.70;99.90;;;;;;5027003;28;20054;-60
2022/05/18 05:06:39;;;;;;;14.57;13.00;;;16.80;99.90;;;;;;5029108;28;20068;-60
2022/05/18 05:09:05;;;;;;;15.88;12.68;;;16.80;99.90;;;;;;5011634;28;20399;-60
2022/05/18 05:11:31;;;;;;;15.18;13.15;;;16.80;99.90;;;;;;5027440;28;20052;-60
2022/05/18 05:13:57;;;;;;;13.93;12.43;;;16.90;99.90;;;;;;5027618;28;20037;-60
2022/05/18 05:16:23;;;;;;;16.88;11.40;;;17.00;99.90;;;;;;5028101;28;20076;-60
2022/05/18 05:18:48;;;;;;;15.20;11.65;;;17.00;99.90;;;;;;5027913;28;20073;-59
2022/05/18 05:21:14;;;;;;;13.63;10.48;;;17.10;99.90;;;;;;5011187;28;20121;-59
2022/05/18 05:23:40;;;;;;;14.07;11.13;;;17.20;99.90;;;;;;5027443;28;20450;-59
2022/05/18 05:26:06;;;;;;;11.15;9.95;;;17.30;99.90;;;;;;5028874;28;20037;-59
2022/05/18 05:28:32;;;;;;;12.85;10.27;;;17.50;99.90;;;;;;5011147;28;20047;-59
2022/05/18 05:31:03;;;;;;;12.73;9.32;;;17.80;99.90;;;;;;5027233;28;20561;-60
2022/05/18 05:33:29;;;;;;;13.98;9.60;;;18.10;99.90;;;;;;5027171;28;20053;-60
2022/05/18 05:35:54;;;;;;;11.50;9.70;;;18.20;99.90;;;;;;5027271;28;20045;-59
2022/05/18 05:38:20;;;;;;;12.75;9.32;;;18.10;99.90;;;;;;5027484;28;20045;-59
2022/05/18 05:40:46;;;;;;;11.13;9.45;;;18.10;99.90;;;;;;5011008;28;20091;-60
2022/05/18 05:43:12;;;;;;;12.68;8.77;;;18.20;99.90;;;;;;5027710;28;20041;-60
2022/05/18 05:45:39;;;;;;;13.20;8.35;;;18.50;99.90;;;;;;5026963;28;20041;-60
2022/05/18 05:48:06;;;;;;;11.63;8.57;;;18.70;99.90;;;;;;5027607;28;20542;-60
2022/05/18 05:50:32;;;;;;;8.88;7.78;;;18.90;99.90;;;;;;5027369;28;20072;-61
2022/05/18 05:52:59;;;;;;;10.75;8.95;;;19.10;99.90;;;;;;5027568;28;20055;-61
2022/05/18 05:55:25;;;;;;;11.15;8.45;;;19.10;99.90;;;;;;5026820;28;20056;-61
2022/05/18 05:57:55;;;;;;;9.95;8.05;;;19.30;99.90;;;;;;5060399;28;20087;-61
2022/05/18 06:00:25;;;;;;;11.63;8.10;;;19.40;99.90;;;;;;5027147;28;20085;-60
2022/05/18 06:02:51;;;;;;;8.73;7.82;;;19.40;99.90;;;;;;5011000;28;20392;-60
2022/05/18 06:05:20;;;;;;;9.63;7.78;;;19.40;99.90;;;;;;5028138;28;20634;-59
2022/05/18 06:07:46;;;;;;;11.73;7.95;;;19.60;99.90;;;;;;5043994;28;20488;-61
2022/05/18 06:10:12;;;;;;;10.10;7.18;;;19.70;99.90;;;;;;4994310;28;20051;-59
2022/05/18 06:12:38;;;;;;;10.52;8.10;;;19.80;99.90;;;;;;5060151;28;20041;-60
2022/05/18 06:15:06;;;;;;;10.43;7.90;;;19.80;99.90;;;;;;5026890;28;20494;-60
2022/05/18 06:17:32;;;;;;;8.38;7.00;;;19.90;99.90;;;;;;5030500;28;20128;-60
2022/05/18 06:19:58;;;;;;;9.32;7.13;;;19.90;99.90;;;;;;5047339;28;20057;-59
2022/05/18 06:22:25;;;;;;;10.32;7.38;;;20.00;99.90;;;;;;5030495;28;20046;-61
2022/05/18 06:24:52;;;;;;;8.32;7.18;;;20.00;99.90;;;;;;5063796;28;20506;-59
2022/05/18 06:27:21;;;;;;;8.73;7.63;;;19.80;99.90;;;;;;5030228;28;20050;-60
2022/05/18 06:29:50;;;;;;;10.57;7.20;;;19.90;99.90;;;;;;5030584;28;20120;-60
2022/05/18 06:32:17;;;;;;;10.48;7.60;;;20.10;99.90;;;;;;5063833;28;20094;-60
2022/05/18 06:34:48;;;;;;;8.40;6.47;;;20.10;99.90;;;;;;5031901;28;20089;-60
2022/05/18 06:37:14;;;;;;;9.70;6.78;;;20.20;99.90;;;;;;5030253;28;20068;-60
2022/05/18 06:39:40;;;;;;;7.85;6.53;;;20.40;99.90;;;;;;5031666;28;20107;-60
2022/05/18 06:42:07;;;;;;;8.43;6.93;;;20.70;99.90;;;;;;5030199;28;20139;-60
2022/05/18 06:44:32;;;;;;;10.52;7.45;;;20.80;99.90;;;;;;5014347;28;20419;-60
2022/05/18 06:47:00;;;;;;;9.88;6.53;;;20.90;99.90;;;;;;5030431;28;20079;-61
2022/05/18 06:49:26;;;;;;;9.13;6.68;;;20.80;99.90;;;;;;5029760;28;20049;-60
2022/05/18 06:51:53;;;;;;;8.18;6.65;;;20.80;99.90;;;;;;5029971;28;20377;-60
2022/05/18 06:54:19;;;;;;;8.32;6.43;;;21.00;99.90;;;;;;5029835;28;20049;-60
2022/05/18 06:56:45;;;;;;;7.65;6.30;;;21.00;99.90;;;;;;5046722;28;20045;-61
2022/05/18 06:59:12;;;;;;;10.30;6.70;;;21.10;99.90;;;;;;5029689;28;20503;-61
2022/05/18 07:01:38;;;;;;;9.88;6.10;;;21.30;99.90;;;;;;5029919;28;20179;-61
2022/05/18 07:04:05;;;;;;;10.77;6.13;;;21.30;99.90;;;;;;5013501;28;20080;-61
2022/05/18 07:06:35;;;;;;;7.53;5.43;;;21.20;99.90;;;;;;5029696;28;20500;-61
2022/05/18 07:09:02;;;;;;;9.18;5.88;;;21.40;99.90;;;;;;5030028;28;20514;-61
2022/05/18 07:11:27;;;;;;;11.25;6.78;;;21.70;99.90;;;;;;5029308;28;20053;-60
2022/05/18 07:13:55;;;;;;;13.35;6.45;;;21.70;99.90;;;;;;5031253;28;20061;-60
2022/05/18 07:16:22;;;;;;;10.52;6.30;;;21.80;99.90;;;;;;5029897;28;20053;-60
2022/05/18 07:18:48;;;;;;;11.73;6.65;;;21.90;99.90;;;;;;5030012;28;20049;-61
2022/05/18 07:21:14;;;;;;;10.65;6.90;;;22.00;99.90;;;;;;5029510;28;20056;-60
2022/05/18 07:23:40;;;;;;;11.80;7.20;;;22.00;99.90;;;;;;5013184;28;20042;-61
2022/05/18 07:26:07;;;;;;;9.45;7.20;;;22.10;99.90;;;;;;5045888;28;20566;-61
2022/05/18 07:28:33;;;;;;;8.75;7.10;;;22.30;99.90;;;;;;5028492;28;20138;-60
2022/05/18 07:30:59;;;;;;;7.70;6.68;;;22.50;99.90;;;;;;5062725;28;20044;-60
2022/05/18 07:33:26;;;;;;;8.48;6.80;;;22.60;99.90;;;;;;5028943;28;20045;-60
2022/05/18 07:35:54;;;;;;;8.25;6.72;;;22.50;99.90;;;;;;5062536;28;20056;-60
2022/05/18 07:38:22;;;;;;;9.77;7.45;;;22.70;99.90;;;;;;5029124;28;20045;-60
2022/05/18 07:40:49;;;;;;;9.95;7.35;;;22.80;99.90;;;;;;5029063;28;20655;-60
2022/05/18 07:43:18;;;;;;;9.73;7.07;;;22.90;99.90;;;;;;5030525;28;20038;-61
2022/05/18 07:45:48;;;;;;;9.18;6.88;;;23.00;99.90;;;;;;5029244;28;20054;-61
2022/05/18 07:48:14;;;;;;;12.15;7.65;;;23.00;99.90;;;;;;5045744;28;20116;-60
2022/05/18 07:50:39;;;;;;;13.02;7.25;;;23.10;99.90;;;;;;5028660;28;20140;-60
2022/05/18 07:53:05;;;;;;;9.93;7.57;;;23.10;99.90;;;;;;5012207;28;20052;-60
2022/05/18 07:55:31;;;;;;;11.35;7.20;;;23.10;99.90;;;;;;5045191;28;20455;-60
2022/05/18 07:57:57;;;;;;;9.40;7.30;;;23.40;99.90;;;;;;5028609;28;20048;-60
2022/05/18 08:00:24;;;;;;;8.27;7.20;;;23.60;99.90;;;;;;5012160;28;20553;-60
2022/05/18 08:02:51;;;;;;;10.10;7.03;;;23.70;99.90;;;;;;5028637;28;20550;-60
2022/05/18 08:05:17;;;;;;;10.52;7.68;;;24.00;99.90;;;;;;5028669;28;20507;-60
2022/05/18 08:07:45;;;;;;;8.30;7.50;;;24.10;99.90;;;;;;5045296;28;20045;-60
2022/05/18 08:15:46;;;;;;;10.27;7.82;;;24.70;99.90;;;;;;5030154;28;20052;-60
2022/05/18 08:18:12;;;;;;;11.18;7.30;;;25.00;99.90;;;;;;5045149;28;20071;-60
2022/05/18 08:20:40;;;;;;;11.02;7.70;;;25.30;99.90;;;;;;5011872;28;20055;-61
2022/05/18 08:23:07;;;;;;;9.63;7.20;;;25.50;99.90;;;;;;5061523;28;20095;-61
2022/05/18 08:25:33;;;;;;;13.05;7.40;;;25.50;99.90;;;;;;5028207;28;20045;-61
2022/05/18 08:27:59;;;;;;;11.95;7.47;;;25.80;99.90;;;;;;5028013;28;20083;-61
2022/05/18 08:30:25;;;;;;;11.25;7.05;;;25.90;99.90;;;;;;5012205;28;20080;-61
2022/05/18 08:32:51;;;;;;;10.63;7.28;;;26.00;99.90;;;;;;5028046;28;20050;-61
2022/05/18 08:35:17;;;;;;;10.07;6.75;;;26.30;99.90;;;;;;5027746;28;20041;-61
2022/05/18 08:37:48;;;;;;;10.50;5.93;;;26.40;99.90;;;;;;5029297;28;20116;-61
2022/05/18 08:40:26;;;;;;;9.02;6.40;;;26.40;99.90;;;;;;5027698;28;20147;-60
2022/05/18 08:42:52;;;;;;;6.22;4.90;;;26.40;98.60;;;;;;5027686;28;20033;-60
2022/05/18 08:45:18;;;;;;;8.45;4.95;;;26.40;94.70;;;;;;5027611;28;20053;-61
2022/05/18 08:48:03;;;;;;;7.57;5.05;;;26.50;93.90;;;;;;5043767;28;20052;-61
2022/05/18 08:50:29;;;;;;;8.27;5.60;;;26.70;92.50;;;;;;5026902;28;20046;-61
2022/05/18 08:53:06;;;;;;;8.18;4.85;;;26.70;95.00;;;;;;5026833;28;20072;-61
2022/05/18 08:56:11;;;;;;;6.95;4.50;;;27.30;94.50;;;;;;5026570;28;20048;-62
2022/05/18 08:58:44;;;;;;;8.50;4.35;;;27.50;88.50;;;;;;5026792;28;20422;-61
2022/05/18 09:01:15;;;;;;;8.73;4.47;;;27.40;87.30;;;;;;5026857;28;20045;-61
2022/05/18 09:03:48;;;;;;;6.05;3.90;;;27.60;88.10;;;;;;5027206;28;20373;-61
2022/05/18 09:06:39;;;;;;;7.93;3.50;;;28.00;84.60;;;;;;5027194;28;20392;-61
2022/05/18 09:12:03;;;;;;;5.40;4.00;;;28.20;83.30;;;;;;5026663;28;20554;-61
2022/05/18 09:14:37;;;;;;;7.53;3.20;;;28.50;82.00;;;;;;5026203;28;20042;-61
2022/05/18 09:17:09;;;;;;;8.13;3.15;;;28.80;81.20;;;;;;5026509;28;20045;-60
2022/05/18 09:19:54;;;;;;;6.63;2.78;;;28.80;82.90;;;;;;5026839;28;20099;-60
2022/05/18 09:22:44;;;;;;;3.83;1.70;;;29.20;77.20;;;;;;5026812;28;20088;-60
2022/05/18 09:25:20;;;;;;;2.80;1.50;;;29.40;69.00;;;;;;5026972;28;20049;-61
2022/05/18 09:27:55;;;;;;;3.22;1.38;;;29.50;66.60;;;;;;5010155;28;20049;-61
2022/05/18 09:30:48;;;;;;;4.05;1.40;;;29.70;63.00;;;;;;5027886;28;20045;-61
2022/05/18 09:33:52;;;;;;;2.83;1.05;;;29.80;61.50;;;;;;5059702;28;20496;-60
2022/05/18 09:36:36;;;;;;;6.70;0.90;;;29.70;62.40;;;;;;5026530;28;20049;-61
2022/05/18 09:39:09;;;;;;;6.82;1.25;;;29.60;61.60;;;;;;5026472;28;20136;-61
2022/05/18 09:41:41;;;;;;;3.90;0.60;;;29.50;61.30;;;;;;5059874;28;20523;-61
2022/05/18 09:44:11;;;;;;;2.20;0.50;;;29.40;59.30;;;;;;5026378;28;20049;-62
2022/05/18 09:46:39;;;;;;;5.22;1.08;;;29.10;59.50;;;;;;5027988;28;20049;-61
2022/05/18 09:49:19;;;;;;;3.10;1.02;;;29.30;63.80;;;;;;5043412;28;20033;-61
2022/05/18 09:51:46;;;;;;;3.38;1.30;;;29.70;63.30;;;;;;5029440;28;20080;-62
2022/05/18 09:54:12;;;;;;;9.95;1.00;;;30.20;61.60;;;;;;5030190;28;20038;-61
2022/05/18 09:56:45;;;;;;;5.07;0.77;;;30.20;61.50;;;;;;4997753;28;20124;-61
2022/05/18 09:59:16;;;;;;;3.65;0.88;;;30.00;59.60;;;;;;5029610;28;20058;-61
2022/05/18 10:07:28;;;;;;;3.05;0.50;;;30.60;56.70;;;;;;5030079;28;20134;-61
2022/05/18 10:10:21;;;;;;;4.95;0.50;;;30.30;55.40;;;;;;5063111;28;20045;-61
2022/05/18 10:12:48;;;;;;;;;;;30.10;54.90;;;;;;5030034;28;20049;-61
2022/05/18 10:15:39;;;;;;;3.70;0.40;;;30.10;53.50;;;;;;5030013;28;20439;-61
2022/05/18 10:18:29;;;;;;;3.08;0.60;;;30.40;55.10;;;;;;5063197;28;20045;-61
2022/05/18 10:21:16;;;;;;;4.13;0.70;;;30.20;55.30;;;;;;5029749;28;20046;-62
2022/05/18 10:23:58;;;;;;;4.68;0.95;;;30.10;54.20;;;;;;5029620;28;20087;-62
2022/05/18 10:26:33;;;;;;;3.35;0.70;;;30.40;54.60;;;;;;5029796;28;20042;-62
2022/05/18 10:29:22;;;;;;;3.40;1.25;;;30.70;54.80;;;;;;5030625;28;20118;-62
2022/05/18 10:32:09;;;;;;;4.75;1.35;;;30.70;55.40;;;;;;5030629;28;20128;-62
2022/05/18 10:34:48;;;;;;;5.32;1.30;;;30.90;56.00;;;;;;5031553;28;20492;-62
2022/05/18 10:37:26;;;;;;;4.60;1.08;;;30.80;55.90;;;;;;5063746;28;20041;-62
2022/05/18 10:39:57;;;;;;;5.85;1.50;;;31.00;55.40;;;;;;5030670;28;20445;-61
2022/05/18 10:42:51;;;;;;;4.00;1.83;;;31.00;54.80;;;;;;5063588;28;20041;-62
2022/05/18 10:45:26;;;;;;;2.45;1.30;;;31.30;53.30;;;;;;5029785;28;20045;-62
2022/05/18 10:47:56;;;;;;;4.32;1.58;;;31.40;54.70;;;;;;5032044;28;20128;-62
2022/05/18 10:50:24;;;;;;;4.13;1.08;;;31.30;53.80;;;;;;5030085;28;20077;-62
2022/05/18 10:52:54;;;;;;;3.65;0.82;;;31.70;54.30;;;;;;5030212;28;20132;-61
2022/05/18 10:55:23;;;;;;;4.32;1.20;;;31.30;52.50;;;;;;5029891;28;20080;-61
2022/05/18 10:58:21;;;;;;;2.13;1.02;;;31.40;52.60;;;;;;5046559;28;20061;-61
2022/05/18 11:01:01;;;;;;;4.13;1.13;;;31.50;52.00;;;;;;5063261;28;20053;-62
2022/05/18 11:03:41;;;;;;;9.35;1.63;;;31.40;51.80;;;;;;5029705;28;20083;-61
2022/05/18 11:06:31;;;;;;;5.90;2.03;;;31.90;51.80;;;;;;5029715;28;20041;-62
2022/05/18 11:09:16;;;;;;;4.53;1.17;;;31.20;52.00;;;;;;5029982;28;20053;-61
2022/05/18 11:11:52;;;;;;;4.63;1.17;;;31.20;51.70;;;;;;5029384;28;20059;-61
2022/05/18 11:14:32;;;;;;;4.82;1.20;;;31.40;51.40;;;;;;5029739;28;20080;-61
2022/05/18 11:17:18;;;;;;;3.22;1.00;;;31.40;52.50;;;;;;5029668;28;20261;-61
2022/05/18 11:19:53;;;;;;;3.40;1.05;;;31.50;53.00;;;;;;5029194;28;20433;-61
2022/05/18 11:22:58;;;;;;;4.18;1.50;;;31.50;53.10;;;;;;5029851;28;20483;-61
2022/05/18 11:25:33;;;;;;;8.07;5.80;;;31.70;51.00;;;;;;5029093;28;20083;-61
2022/05/18 11:28:18;;;;;;;8.57;6.90;;;31.50;60.40;;;;;;5029500;28;20041;-61
2022/05/18 11:31:04;;;;;;;9.40;6.45;;;31.30;63.00;;;;;;5030844;28;20048;-61
2022/05/18 11:33:38;;;;;;;8.93;6.63;;;31.00;62.90;;;;;;5015006;28;20088;-61
2022/05/18 11:36:29;;;;;;;8.75;7.38;;;30.40;64.10;;;;;;5029273;28;20048;-61
2022/05/18 11:39:03;;;;;;;9.73;8.27;;;30.10;70.80;;;;;;5029211;28;20050;-61
2022/05/18 11:41:30;;;;;;;10.70;8.20;;;30.60;73.10;;;;;;5028657;28;20041;-60
2022/05/18 11:44:08;;;;;;;10.63;9.63;;;30.70;69.60;;;;;;5062480;28;20072;-62
2022/05/18 11:46:33;;;;;;;12.43;9.23;;;30.80;72.80;;;;;;5012800;28;20514;-62
2022/05/18 11:49:20;;;;;;;13.20;10.98;;;30.40;74.50;;;;;;5029018;28;20041;-62
2022/05/18 11:52:31;;;;;;;13.93;9.90;;;30.70;75.00;;;;;;5028953;28;20041;-61
2022/05/18 11:55:28;;;;;;;14.13;11.00;;;30.30;70.20;;;;;;5009909;28;20491;-62
2022/05/18 11:58:11;;;;;;;12.93;11.60;;;29.90;76.10;;;;;;5028811;28;20496;-62
2022/05/18 12:01:00;;;;;;;12.25;10.98;;;30.40;74.90;;;;;;5029375;28;20049;-61
2022/05/18 12:03:28;;;;;;;13.23;11.95;;;30.40;73.70;;;;;;5062171;28;20420;-61
2022/05/18 12:06:25;;;;;;;13.90;11.05;;;29.20;74.70;;;;;;5027903;28;20119;-61
2022/05/18 12:09:00;;;;;;;13.50;10.88;;;28.40;77.90;;;;;;5022780;28;20095;-61
2022/05/18 12:11:51;;;;;;;13.02;11.73;;;27.70;80.20;;;;;;5027792;28;20384;-61
2022/05/18 12:14:31;;;;;;;13.52;11.90;;;27.60;88.90;;;;;;5028555;28;20045;-61
2022/05/18 12:17:13;;;;;;;13.90;12.00;;;27.40;83.10;;;;;;5044473;28;20092;-61
2022/05/18 12:20:05;;;;;;;15.15;13.65;;;27.20;86.50;;;;;;5027679;28;20522;-61
2022/05/18 12:22:47;;;;;;;15.50;13.55;;;27.30;88.60;;;;;;5012667;28;20076;-61
2022/05/18 12:25:17;;;;;;;16.05;13.20;;;27.10;90.50;;;;;;5027999;28;20049;-60
2022/05/18 12:27:43;;;;;;;15.40;13.10;;;26.80;91.80;;;;;;5027569;28;20484;-61
2022/05/18 12:30:13;;;;;;;16.95;14.50;;;26.80;91.50;;;;;;5027449;28;20518;-60
2022/05/18 12:32:40;;;;;;;17.83;15.80;;;26.30;95.00;;;;;;5027100;28;20531;-60
2022/05/18 12:35:30;;;;;;;16.00;14.30;;;26.40;96.50;;;;;;5028259;28;20483;-60
2022/05/18 12:38:08;;;;;;;17.42;15.02;;;26.20;99.00;;;;;;5028462;28;20037;-60
2022/05/18 12:40:49;;;;;;;17.58;15.43;;;26.70;99.90;;;;;;5026898;28;20155;-60
2022/05/18 12:43:23;;;;;;;16.77;15.07;;;27.00;97.60;;;;;;5026968;28;20045;-62
2022/05/18 12:45:56;;;;;;;17.38;15.70;;;26.90;97.10;;;;;;5027527;28;20368;-61
2022/05/18 12:48:50;;;;;;;19.35;16.85;;;27.40;96.40;;;;;;5028771;28;20053;-61
2022/05/18 12:51:27;;;;;;;18.25;16.27;;;27.70;96.40;;;;;;5027726;28;20037;-61
2022/05/18 12:54:04;;;;;;;20.15;16.05;;;27.80;95.90;;;;;;5027166;28;20088;-62
2022/05/18 12:56:36;;;;;;;19.55;16.02;;;27.80;94.10;;;;;;5027976;28;20082;-62
2022/05/18 12:59:16;;;;;;;19.08;14.98;;;27.90;93.70;;;;;;5026599;28;20084;-62
2022/05/18 13:01:45;;;;;;;15.93;14.07;;;27.60;93.70;;;;;;5027606;28;20464;-62
2022/05/18 13:04:10;;;;;;;15.52;13.82;;;27.90;91.50;;;;;;5027174;28;20598;-61
2022/05/18 13:06:36;;;;;;;16.73;14.95;;;28.10;91.70;;;;;;5027005;28;20045;-62
2022/05/18 13:09:26;;;;;;;22.23;14.45;;;28.40;89.40;;;;;;5027186;28;20052;-62
2022/05/18 13:12:11;;;;;;;16.77;15.00;;;28.20;91.60;;;;;;5026423;28;20051;-61